sensor_id;sensor_type;location;lat;lon;timestamp;P1;durP1;ratioP1;P2;durP2;ratioP2
38567;SDS011;24338;48.280;10.970;2023-02-18T00:00:54;4.40;;;2.03;;
38567;SDS011;24338;48.280;10.970;2023-02-18T00:03:23;5.88;;;2.15;;
38567;SDS011;24338;48.280;10.970;2023-02-18T00:05:51;5.68;;;2.20;;
38567;SDS011;24338;48.280;10.970;2023-02-18T00:08:19;4.00;;;2.15;;
38567;SDS011;24338;48.280;10.970;2023-02-18T00:10:46;3.83;;;1.85;;
38567;SDS011;24338;48.280;10.970;2023-02-18T00:13:13;3.88;;;2.00;;
38567;SDS011;24338;48.280;10.970;2023-02-18T00:15:40;5.18;;;2.20;;
38567;SDS011;24338;48.280;10.970;2023-02-18T00:18:07;3.42;;;2.00;;
38567;SDS011;24338;48.280;10.970;2023-02-18T00:20:34;3.38;;;1.73;;
38567;SDS011;24338;48.280;10.970;2023-02-18T00:23:01;4.20;;;1.83;;
38567;SDS011;24338;48.280;10.970;2023-02-18T00:25:28;3.55;;;1.42;;
38567;SDS011;24338;48.280;10.970;2023-02-18T00:27:55;3.80;;;1.35;;
38567;SDS011;24338;48.280;10.970;2023-02-18T00:30:22;4.20;;;2.17;;
38567;SDS011;24338;48.280;10.970;2023-02-18T00:32:49;3.70;;;1.70;;
38567;SDS011;24338;48.280;10.970;2023-02-18T00:35:16;5.38;;;1.73;;
38567;SDS011;24338;48.280;10.970;2023-02-18T00:37:43;2.63;;;1.35;;
38567;SDS011;24338;48.280;10.970;2023-02-18T00:40:10;5.57;;;1.80;;
38567;SDS011;24338;48.280;10.970;2023-02-18T00:42:37;4.60;;;1.90;;
38567;SDS011;24338;48.280;10.970;2023-02-18T00:45:04;4.03;;;1.73;;
38567;SDS011;24338;48.280;10.970;2023-02-18T00:47:31;5.47;;;1.73;;
38567;SDS011;24338;48.280;10.970;2023-02-18T00:49:57;2.40;;;1.30;;
38567;SDS011;24338;48.280;10.970;2023-02-18T00:52:24;3.85;;;1.85;;
38567;SDS011;24338;48.280;10.970;2023-02-18T00:54:51;4.35;;;1.70;;
38567;SDS011;24338;48.280;10.970;2023-02-18T00:57:18;3.80;;;1.52;;
38567;SDS011;24338;48.280;10.970;2023-02-18T00:59:45;4.00;;;1.63;;
38567;SDS011;24338;48.280;10.970;2023-02-18T01:02:11;3.00;;;1.40;;
38567;SDS011;24338;48.280;10.970;2023-02-18T01:04:38;3.63;;;1.70;;
38567;SDS011;24338;48.280;10.970;2023-02-18T01:07:05;4.30;;;1.33;;
38567;SDS011;24338;48.280;10.970;2023-02-18T01:09:32;4.28;;;1.55;;
38567;SDS011;24338;48.280;10.970;2023-02-18T01:11:59;5.47;;;2.45;;
38567;SDS011;24338;48.280;10.970;2023-02-18T01:14:25;4.15;;;2.03;;
38567;SDS011;24338;48.280;10.970;2023-02-18T01:16:52;5.22;;;2.42;;
38567;SDS011;24338;48.280;10.970;2023-02-18T01:19:19;4.93;;;1.55;;
38567;SDS011;24338;48.280;10.970;2023-02-18T01:21:46;5.10;;;2.00;;
38567;SDS011;24338;48.280;10.970;2023-02-18T01:24:13;4.07;;;1.63;;
38567;SDS011;24338;48.280;10.970;2023-02-18T01:26:39;4.25;;;1.85;;
38567;SDS011;24338;48.280;10.970;2023-02-18T01:29:06;3.53;;;1.48;;
38567;SDS011;24338;48.280;10.970;2023-02-18T01:31:33;4.18;;;1.48;;
38567;SDS011;24338;48.280;10.970;2023-02-18T01:34:00;3.60;;;1.65;;
38567;SDS011;24338;48.280;10.970;2023-02-18T01:36:27;4.72;;;1.65;;
38567;SDS011;24338;48.280;10.970;2023-02-18T01:38:53;4.45;;;1.60;;
38567;SDS011;24338;48.280;10.970;2023-02-18T01:41:20;4.38;;;1.45;;
38567;SDS011;24338;48.280;10.970;2023-02-18T01:43:47;3.97;;;1.77;;
38567;SDS011;24338;48.280;10.970;2023-02-18T01:46:15;6.15;;;1.77;;
38567;SDS011;24338;48.280;10.970;2023-02-18T01:48:46;4.15;;;1.90;;
38567;SDS011;24338;48.280;10.970;2023-02-18T01:51:24;3.85;;;1.63;;
38567;SDS011;24338;48.280;10.970;2023-02-18T01:54:08;3.93;;;1.63;;
38567;SDS011;24338;48.280;10.970;2023-02-18T01:56:44;4.60;;;1.85;;
38567;SDS011;24338;48.280;10.970;2023-02-18T01:59:17;5.43;;;1.67;;
38567;SDS011;24338;48.280;10.970;2023-02-18T02:01:48;3.03;;;1.50;;
38567;SDS011;24338;48.280;10.970;2023-02-18T02:04:15;3.55;;;1.70;;
38567;SDS011;24338;48.280;10.970;2023-02-18T02:06:42;5.40;;;1.92;;
38567;SDS011;24338;48.280;10.970;2023-02-18T02:09:09;4.80;;;2.75;;
38567;SDS011;24338;48.280;10.970;2023-02-18T02:17:31;4.10;;;2.08;;
38567;SDS011;24338;48.280;10.970;2023-02-18T02:37:43;4.35;;;2.00;;
38567;SDS011;24338;48.280;10.970;2023-02-18T02:43:11;5.57;;;3.08;;
38567;SDS011;24338;48.280;10.970;2023-02-18T02:45:47;7.60;;;2.53;;
38567;SDS011;24338;48.280;10.970;2023-02-18T02:48:33;5.00;;;2.40;;
38567;SDS011;24338;48.280;10.970;2023-02-18T02:54:19;3.83;;;1.98;;
38567;SDS011;24338;48.280;10.970;2023-02-18T02:56:48;4.82;;;2.22;;
38567;SDS011;24338;48.280;10.970;2023-02-18T02:59:20;3.83;;;2.10;;
38567;SDS011;24338;48.280;10.970;2023-02-18T03:18:16;3.05;;;1.83;;
38567;SDS011;24338;48.280;10.970;2023-02-18T03:21:04;4.07;;;2.08;;
38567;SDS011;24338;48.280;10.970;2023-02-18T03:23:39;4.57;;;1.80;;
38567;SDS011;24338;48.280;10.970;2023-02-18T03:26:11;3.25;;;1.70;;
38567;SDS011;24338;48.280;10.970;2023-02-18T03:28:41;3.53;;;1.55;;
38567;SDS011;24338;48.280;10.970;2023-02-18T03:31:17;3.95;;;2.10;;
38567;SDS011;24338;48.280;10.970;2023-02-18T03:33:58;3.10;;;1.42;;
38567;SDS011;24338;48.280;10.970;2023-02-18T03:36:28;3.63;;;1.90;;
38567;SDS011;24338;48.280;10.970;2023-02-18T03:39:08;3.55;;;1.70;;
38567;SDS011;24338;48.280;10.970;2023-02-18T03:41:38;4.47;;;1.90;;
38567;SDS011;24338;48.280;10.970;2023-02-18T03:44:07;5.88;;;2.38;;
38567;SDS011;24338;48.280;10.970;2023-02-18T03:46:35;3.90;;;1.98;;
38567;SDS011;24338;48.280;10.970;2023-02-18T03:49:04;4.22;;;2.40;;
38567;SDS011;24338;48.280;10.970;2023-02-18T03:51:31;2.95;;;1.92;;
38567;SDS011;24338;48.280;10.970;2023-02-18T03:53:58;4.03;;;1.92;;
38567;SDS011;24338;48.280;10.970;2023-02-18T03:56:25;3.65;;;1.92;;
38567;SDS011;24338;48.280;10.970;2023-02-18T03:58:52;3.97;;;1.88;;
38567;SDS011;24338;48.280;10.970;2023-02-18T04:01:19;5.15;;;1.88;;
38567;SDS011;24338;48.280;10.970;2023-02-18T04:03:46;4.97;;;1.88;;
38567;SDS011;24338;48.280;10.970;2023-02-18T04:06:13;5.60;;;2.03;;
38567;SDS011;24338;48.280;10.970;2023-02-18T04:08:40;4.90;;;1.85;;
38567;SDS011;24338;48.280;10.970;2023-02-18T04:11:07;3.20;;;1.90;;
38567;SDS011;24338;48.280;10.970;2023-02-18T04:13:33;3.55;;;1.90;;
38567;SDS011;24338;48.280;10.970;2023-02-18T04:16:00;4.28;;;1.38;;
38567;SDS011;24338;48.280;10.970;2023-02-18T04:18:27;4.00;;;2.28;;
38567;SDS011;24338;48.280;10.970;2023-02-18T04:20:53;4.10;;;2.30;;
38567;SDS011;24338;48.280;10.970;2023-02-18T04:23:20;3.42;;;1.90;;
38567;SDS011;24338;48.280;10.970;2023-02-18T04:25:47;5.05;;;2.00;;
38567;SDS011;24338;48.280;10.970;2023-02-18T04:28:15;3.35;;;2.25;;
38567;SDS011;24338;48.280;10.970;2023-02-18T04:30:43;3.80;;;2.20;;
38567;SDS011;24338;48.280;10.970;2023-02-18T04:33:10;2.78;;;1.88;;
38567;SDS011;24338;48.280;10.970;2023-02-18T04:35:37;3.08;;;1.70;;
38567;SDS011;24338;48.280;10.970;2023-02-18T04:38:08;3.50;;;2.05;;
38567;SDS011;24338;48.280;10.970;2023-02-18T04:40:35;3.17;;;1.80;;
38567;SDS011;24338;48.280;10.970;2023-02-18T04:43:02;2.95;;;1.63;;
38567;SDS011;24338;48.280;10.970;2023-02-18T04:45:29;3.78;;;1.65;;
38567;SDS011;24338;48.280;10.970;2023-02-18T04:47:56;2.60;;;1.23;;
38567;SDS011;24338;48.280;10.970;2023-02-18T04:50:23;2.30;;;1.40;;
38567;SDS011;24338;48.280;10.970;2023-02-18T04:52:50;3.55;;;1.20;;
38567;SDS011;24338;48.280;10.970;2023-02-18T04:55:17;2.38;;;1.25;;
38567;SDS011;24338;48.280;10.970;2023-02-18T04:57:44;2.95;;;1.25;;
38567;SDS011;24338;48.280;10.970;2023-02-18T05:00:13;1.95;;;0.93;;
38567;SDS011;24338;48.280;10.970;2023-02-18T05:02:42;2.08;;;1.23;;
38567;SDS011;24338;48.280;10.970;2023-02-18T05:05:10;2.08;;;1.15;;
38567;SDS011;24338;48.280;10.970;2023-02-18T05:07:38;2.08;;;1.20;;
38567;SDS011;24338;48.280;10.970;2023-02-18T05:10:05;2.20;;;1.00;;
38567;SDS011;24338;48.280;10.970;2023-02-18T05:12:32;3.67;;;1.45;;
38567;SDS011;24338;48.280;10.970;2023-02-18T05:14:59;1.75;;;0.95;;
38567;SDS011;24338;48.280;10.970;2023-02-18T05:17:26;2.03;;;0.93;;
38567;SDS011;24338;48.280;10.970;2023-02-18T05:19:53;3.05;;;1.30;;
38567;SDS011;24338;48.280;10.970;2023-02-18T05:22:19;2.47;;;1.20;;
38567;SDS011;24338;48.280;10.970;2023-02-18T05:24:46;3.05;;;1.00;;
38567;SDS011;24338;48.280;10.970;2023-02-18T05:27:13;2.50;;;1.15;;
38567;SDS011;24338;48.280;10.970;2023-02-18T05:29:40;2.58;;;1.02;;
38567;SDS011;24338;48.280;10.970;2023-02-18T05:32:07;2.47;;;1.17;;
38567;SDS011;24338;48.280;10.970;2023-02-18T05:34:33;4.07;;;1.25;;
38567;SDS011;24338;48.280;10.970;2023-02-18T05:37:00;2.10;;;1.10;;
38567;SDS011;24338;48.280;10.970;2023-02-18T05:39:27;2.67;;;1.27;;
38567;SDS011;24338;48.280;10.970;2023-02-18T05:41:54;2.22;;;1.08;;
38567;SDS011;24338;48.280;10.970;2023-02-18T05:44:20;1.98;;;0.90;;
38567;SDS011;24338;48.280;10.970;2023-02-18T05:46:57;3.78;;;1.27;;
38567;SDS011;24338;48.280;10.970;2023-02-18T05:49:29;1.90;;;0.80;;
38567;SDS011;24338;48.280;10.970;2023-02-18T05:51:57;2.58;;;1.20;;
38567;SDS011;24338;48.280;10.970;2023-02-18T05:54:24;2.38;;;0.93;;
38567;SDS011;24338;48.280;10.970;2023-02-18T05:56:52;2.65;;;1.15;;
38567;SDS011;24338;48.280;10.970;2023-02-18T05:59:19;1.92;;;1.02;;
38567;SDS011;24338;48.280;10.970;2023-02-18T06:01:47;2.30;;;0.93;;
38567;SDS011;24338;48.280;10.970;2023-02-18T06:04:14;2.20;;;1.10;;
38567;SDS011;24338;48.280;10.970;2023-02-18T06:06:41;2.00;;;0.80;;
38567;SDS011;24338;48.280;10.970;2023-02-18T06:09:08;2.25;;;0.75;;
38567;SDS011;24338;48.280;10.970;2023-02-18T06:11:35;2.60;;;0.90;;
38567;SDS011;24338;48.280;10.970;2023-02-18T06:14:02;2.92;;;1.27;;
38567;SDS011;24338;48.280;10.970;2023-02-18T06:16:29;2.40;;;0.70;;
38567;SDS011;24338;48.280;10.970;2023-02-18T06:18:56;1.83;;;0.88;;
38567;SDS011;24338;48.280;10.970;2023-02-18T06:21:23;1.90;;;0.90;;
38567;SDS011;24338;48.280;10.970;2023-02-18T06:23:50;2.85;;;0.80;;
38567;SDS011;24338;48.280;10.970;2023-02-18T06:26:17;3.88;;;0.98;;
38567;SDS011;24338;48.280;10.970;2023-02-18T06:28:44;2.15;;;1.00;;
38567;SDS011;24338;48.280;10.970;2023-02-18T06:31:10;2.05;;;0.80;;
38567;SDS011;24338;48.280;10.970;2023-02-18T06:33:37;2.15;;;0.93;;
38567;SDS011;24338;48.280;10.970;2023-02-18T06:36:05;3.42;;;0.82;;
38567;SDS011;24338;48.280;10.970;2023-02-18T06:38:34;2.25;;;1.00;;
38567;SDS011;24338;48.280;10.970;2023-02-18T06:41:01;1.90;;;0.82;;
38567;SDS011;24338;48.280;10.970;2023-02-18T06:43:29;2.22;;;0.68;;
38567;SDS011;24338;48.280;10.970;2023-02-18T06:45:55;2.22;;;0.70;;
38567;SDS011;24338;48.280;10.970;2023-02-18T06:48:22;1.70;;;0.80;;
38567;SDS011;24338;48.280;10.970;2023-02-18T06:50:49;3.72;;;0.90;;
38567;SDS011;24338;48.280;10.970;2023-02-18T06:53:16;1.40;;;0.75;;
38567;SDS011;24338;48.280;10.970;2023-02-18T06:55:43;1.85;;;0.80;;
38567;SDS011;24338;48.280;10.970;2023-02-18T06:58:11;2.10;;;0.80;;
38567;SDS011;24338;48.280;10.970;2023-02-18T07:00:38;1.55;;;0.63;;
38567;SDS011;24338;48.280;10.970;2023-02-18T07:03:06;2.30;;;0.82;;
38567;SDS011;24338;48.280;10.970;2023-02-18T07:05:33;2.00;;;0.70;;
38567;SDS011;24338;48.280;10.970;2023-02-18T07:08:00;2.17;;;0.93;;
38567;SDS011;24338;48.280;10.970;2023-02-18T07:10:27;2.10;;;0.70;;
38567;SDS011;24338;48.280;10.970;2023-02-18T07:12:54;2.30;;;1.00;;
38567;SDS011;24338;48.280;10.970;2023-02-18T07:15:20;1.38;;;0.60;;
38567;SDS011;24338;48.280;10.970;2023-02-18T07:17:50;1.65;;;0.70;;
38567;SDS011;24338;48.280;10.970;2023-02-18T07:20:17;1.73;;;0.47;;
38567;SDS011;24338;48.280;10.970;2023-02-18T07:22:45;1.30;;;0.50;;
38567;SDS011;24338;48.280;10.970;2023-02-18T07:25:12;1.80;;;0.50;;
38567;SDS011;24338;48.280;10.970;2023-02-18T07:27:39;0.88;;;0.47;;
38567;SDS011;24338;48.280;10.970;2023-02-18T07:30:06;1.23;;;0.43;;
38567;SDS011;24338;48.280;10.970;2023-02-18T07:32:34;1.05;;;0.40;;
38567;SDS011;24338;48.280;10.970;2023-02-18T07:35:02;1.67;;;0.50;;
38567;SDS011;24338;48.280;10.970;2023-02-18T07:37:30;1.38;;;0.70;;
38567;SDS011;24338;48.280;10.970;2023-02-18T07:39:57;0.82;;;0.30;;
38567;SDS011;24338;48.280;10.970;2023-02-18T07:42:24;1.02;;;0.38;;
38567;SDS011;24338;48.280;10.970;2023-02-18T07:44:51;1.02;;;0.40;;
38567;SDS011;24338;48.280;10.970;2023-02-18T07:47:18;1.08;;;0.50;;
38567;SDS011;24338;48.280;10.970;2023-02-18T07:49:45;2.22;;;0.57;;
38567;SDS011;24338;48.280;10.970;2023-02-18T07:52:12;1.15;;;0.32;;
38567;SDS011;24338;48.280;10.970;2023-02-18T07:54:40;1.20;;;0.50;;
38567;SDS011;24338;48.280;10.970;2023-02-18T07:57:07;1.88;;;0.70;;
38567;SDS011;24338;48.280;10.970;2023-02-18T07:59:34;1.85;;;0.50;;
38567;SDS011;24338;48.280;10.970;2023-02-18T08:02:01;1.52;;;0.43;;
38567;SDS011;24338;48.280;10.970;2023-02-18T08:04:28;0.82;;;0.30;;
38567;SDS011;24338;48.280;10.970;2023-02-18T08:06:55;0.77;;;0.30;;
38567;SDS011;24338;48.280;10.970;2023-02-18T08:09:22;1.25;;;0.30;;
38567;SDS011;24338;48.280;10.970;2023-02-18T08:11:48;1.48;;;0.35;;
38567;SDS011;24338;48.280;10.970;2023-02-18T08:14:15;0.88;;;0.30;;
38567;SDS011;24338;48.280;10.970;2023-02-18T08:16:42;1.27;;;0.30;;
38567;SDS011;24338;48.280;10.970;2023-02-18T08:19:09;2.17;;;0.38;;
38567;SDS011;24338;48.280;10.970;2023-02-18T08:21:35;0.77;;;0.30;;
38567;SDS011;24338;48.280;10.970;2023-02-18T08:24:02;0.95;;;0.30;;
38567;SDS011;24338;48.280;10.970;2023-02-18T08:26:29;0.65;;;0.30;;
38567;SDS011;24338;48.280;10.970;2023-02-18T08:28:56;0.90;;;0.40;;
38567;SDS011;24338;48.280;10.970;2023-02-18T08:31:24;1.27;;;0.40;;
38567;SDS011;24338;48.280;10.970;2023-02-18T08:33:53;0.73;;;0.22;;
38567;SDS011;24338;48.280;10.970;2023-02-18T08:36:20;1.23;;;0.30;;
38567;SDS011;24338;48.280;10.970;2023-02-18T08:38:48;1.02;;;0.38;;
38567;SDS011;24338;48.280;10.970;2023-02-18T08:41:15;1.40;;;0.20;;
38567;SDS011;24338;48.280;10.970;2023-02-18T08:43:44;0.82;;;0.20;;
38567;SDS011;24338;48.280;10.970;2023-02-18T08:46:11;1.00;;;0.20;;
38567;SDS011;24338;48.280;10.970;2023-02-18T08:48:50;1.17;;;0.38;;
38567;SDS011;24338;48.280;10.970;2023-02-18T08:51:18;1.42;;;0.30;;
38567;SDS011;24338;48.280;10.970;2023-02-18T08:53:48;2.50;;;0.30;;
38567;SDS011;24338;48.280;10.970;2023-02-18T08:56:15;1.50;;;0.35;;
38567;SDS011;24338;48.280;10.970;2023-02-18T08:58:42;1.45;;;0.30;;
38567;SDS011;24338;48.280;10.970;2023-02-18T09:01:10;0.68;;;0.30;;
38567;SDS011;24338;48.280;10.970;2023-02-18T09:03:38;2.05;;;0.20;;
38567;SDS011;24338;48.280;10.970;2023-02-18T09:06:06;2.05;;;0.55;;
38567;SDS011;24338;48.280;10.970;2023-02-18T09:08:33;0.77;;;0.10;;
38567;SDS011;24338;48.280;10.970;2023-02-18T09:11:00;1.48;;;0.20;;
38567;SDS011;24338;48.280;10.970;2023-02-18T09:13:30;0.60;;;0.30;;
38567;SDS011;24338;48.280;10.970;2023-02-18T09:15:59;1.45;;;0.40;;
38567;SDS011;24338;48.280;10.970;2023-02-18T09:18:31;0.80;;;0.20;;
38567;SDS011;24338;48.280;10.970;2023-02-18T09:21:00;1.17;;;0.20;;
38567;SDS011;24338;48.280;10.970;2023-02-18T09:23:27;0.77;;;0.22;;
38567;SDS011;24338;48.280;10.970;2023-02-18T09:25:56;1.65;;;0.40;;
38567;SDS011;24338;48.280;10.970;2023-02-18T09:28:23;0.98;;;0.28;;
38567;SDS011;24338;48.280;10.970;2023-02-18T09:30:50;0.80;;;0.20;;
38567;SDS011;24338;48.280;10.970;2023-02-18T09:33:17;0.70;;;0.25;;
38567;SDS011;24338;48.280;10.970;2023-02-18T09:35:45;1.33;;;0.30;;
38567;SDS011;24338;48.280;10.970;2023-02-18T09:38:13;1.50;;;0.40;;
38567;SDS011;24338;48.280;10.970;2023-02-18T09:40:46;0.95;;;0.30;;
38567;SDS011;24338;48.280;10.970;2023-02-18T09:43:27;0.57;;;0.20;;
38567;SDS011;24338;48.280;10.970;2023-02-18T09:46:16;2.22;;;0.30;;
38567;SDS011;24338;48.280;10.970;2023-02-18T09:51:19;1.30;;;0.38;;
38567;SDS011;24338;48.280;10.970;2023-02-18T09:53:46;1.20;;;0.40;;
38567;SDS011;24338;48.280;10.970;2023-02-18T09:56:19;1.83;;;0.30;;
38567;SDS011;24338;48.280;10.970;2023-02-18T09:58:57;1.42;;;0.40;;
38567;SDS011;24338;48.280;10.970;2023-02-18T10:01:31;1.60;;;0.43;;
38567;SDS011;24338;48.280;10.970;2023-02-18T10:04:05;1.52;;;0.30;;
38567;SDS011;24338;48.280;10.970;2023-02-18T10:06:46;0.90;;;0.25;;
38567;SDS011;24338;48.280;10.970;2023-02-18T10:09:17;1.55;;;0.30;;
38567;SDS011;24338;48.280;10.970;2023-02-18T10:11:48;1.70;;;0.20;;
38567;SDS011;24338;48.280;10.970;2023-02-18T10:14:36;1.15;;;0.20;;
38567;SDS011;24338;48.280;10.970;2023-02-18T10:17:03;0.50;;;0.20;;
38567;SDS011;24338;48.280;10.970;2023-02-18T10:19:33;1.52;;;0.40;;
38567;SDS011;24338;48.280;10.970;2023-02-18T10:22:03;0.80;;;0.20;;
38567;SDS011;24338;48.280;10.970;2023-02-18T10:24:51;1.25;;;0.28;;
38567;SDS011;24338;48.280;10.970;2023-02-18T10:27:24;1.35;;;0.38;;
38567;SDS011;24338;48.280;10.970;2023-02-18T10:32:50;0.50;;;0.20;;
38567;SDS011;24338;48.280;10.970;2023-02-18T10:35:30;0.95;;;0.20;;
38567;SDS011;24338;48.280;10.970;2023-02-18T10:38:11;0.98;;;0.30;;
38567;SDS011;24338;48.280;10.970;2023-02-18T10:51:36;1.80;;;0.30;;
38567;SDS011;24338;48.280;10.970;2023-02-18T10:54:07;2.28;;;0.40;;
38567;SDS011;24338;48.280;10.970;2023-02-18T10:56:41;1.20;;;0.30;;
38567;SDS011;24338;48.280;10.970;2023-02-18T10:59:20;1.48;;;0.40;;
38567;SDS011;24338;48.280;10.970;2023-02-18T11:01:59;0.57;;;0.22;;
38567;SDS011;24338;48.280;10.970;2023-02-18T11:04:37;2.47;;;0.60;;
38567;SDS011;24338;48.280;10.970;2023-02-18T11:07:18;1.23;;;0.30;;
38567;SDS011;24338;48.280;10.970;2023-02-18T11:09:49;0.88;;;0.63;;
38567;SDS011;24338;48.280;10.970;2023-02-18T11:12:21;0.82;;;0.30;;
38567;SDS011;24338;48.280;10.970;2023-02-18T11:15:14;1.80;;;0.30;;
38567;SDS011;24338;48.280;10.970;2023-02-18T11:17:45;1.08;;;0.30;;
38567;SDS011;24338;48.280;10.970;2023-02-18T11:20:31;1.05;;;0.35;;
38567;SDS011;24338;48.280;10.970;2023-02-18T11:25:38;0.77;;;0.30;;
38567;SDS011;24338;48.280;10.970;2023-02-18T11:28:25;0.98;;;0.35;;
38567;SDS011;24338;48.280;10.970;2023-02-18T11:30:54;1.02;;;0.32;;
38567;SDS011;24338;48.280;10.970;2023-02-18T11:33:31;2.30;;;0.35;;
38567;SDS011;24338;48.280;10.970;2023-02-18T11:36:04;1.23;;;0.35;;
38567;SDS011;24338;48.280;10.970;2023-02-18T11:38:43;2.17;;;0.30;;
38567;SDS011;24338;48.280;10.970;2023-02-18T11:41:16;0.70;;;0.20;;
38567;SDS011;24338;48.280;10.970;2023-02-18T11:43:50;2.10;;;0.37;;
38567;SDS011;24338;48.280;10.970;2023-02-18T11:46:20;0.80;;;0.38;;
38567;SDS011;24338;48.280;10.970;2023-02-18T11:48:49;0.75;;;0.20;;
38567;SDS011;24338;48.280;10.970;2023-02-18T11:51:19;0.73;;;0.20;;
38567;SDS011;24338;48.280;10.970;2023-02-18T11:53:54;0.98;;;0.22;;
38567;SDS011;24338;48.280;10.970;2023-02-18T11:56:26;1.35;;;0.30;;
38567;SDS011;24338;48.280;10.970;2023-02-18T11:58:56;2.63;;;0.22;;
38567;SDS011;24338;48.280;10.970;2023-02-18T12:01:37;1.20;;;0.55;;
38567;SDS011;24338;48.280;10.970;2023-02-18T12:04:12;2.83;;;0.28;;
38567;SDS011;24338;48.280;10.970;2023-02-18T12:09:33;1.40;;;0.40;;
38567;SDS011;24338;48.280;10.970;2023-02-18T12:12:09;0.88;;;0.40;;
38567;SDS011;24338;48.280;10.970;2023-02-18T12:14:39;3.60;;;0.30;;
38567;SDS011;24338;48.280;10.970;2023-02-18T12:23:24;0.77;;;0.30;;
38567;SDS011;24338;48.280;10.970;2023-02-18T12:26:18;1.38;;;0.30;;
38567;SDS011;24338;48.280;10.970;2023-02-18T12:40:23;0.65;;;0.28;;
38567;SDS011;24338;48.280;10.970;2023-02-18T12:48:48;0.90;;;0.30;;
38567;SDS011;24338;48.280;10.970;2023-02-18T12:57:11;0.95;;;0.20;;
38567;SDS011;24338;48.280;10.970;2023-02-18T13:14:10;1.00;;;0.30;;
38567;SDS011;24338;48.280;10.970;2023-02-18T13:16:44;0.98;;;0.30;;
38567;SDS011;24338;48.280;10.970;2023-02-18T13:19:17;0.77;;;0.30;;
38567;SDS011;24338;48.280;10.970;2023-02-18T13:21:50;0.95;;;0.40;;
38567;SDS011;24338;48.280;10.970;2023-02-18T13:24:26;0.98;;;0.20;;
38567;SDS011;24338;48.280;10.970;2023-02-18T13:32:59;1.02;;;0.30;;
38567;SDS011;24338;48.280;10.970;2023-02-18T13:35:47;1.00;;;0.10;;
38567;SDS011;24338;48.280;10.970;2023-02-18T13:41:00;1.20;;;0.30;;
38567;SDS011;24338;48.280;10.970;2023-02-18T13:46:14;0.57;;;0.20;;
38567;SDS011;24338;48.280;10.970;2023-02-18T13:48:54;0.75;;;0.30;;
38567;SDS011;24338;48.280;10.970;2023-02-18T13:51:40;0.95;;;0.30;;
38567;SDS011;24338;48.280;10.970;2023-02-18T13:57:21;1.75;;;0.30;;
38567;SDS011;24338;48.280;10.970;2023-02-18T13:59:37;0.40;;;0.10;;
38567;SDS011;24338;48.280;10.970;2023-02-18T14:20:47;1.35;;;0.40;;
38567;SDS011;24338;48.280;10.970;2023-02-18T14:28:38;1.20;;;0.20;;
38567;SDS011;24338;48.280;10.970;2023-02-18T14:36:48;0.73;;;0.13;;
38567;SDS011;24338;48.280;10.970;2023-02-18T14:49:54;0.47;;;0.10;;
38567;SDS011;24338;48.280;10.970;2023-02-18T14:54:59;1.27;;;0.30;;
38567;SDS011;24338;48.280;10.970;2023-02-18T15:00:17;1.52;;;0.20;;
38567;SDS011;24338;48.280;10.970;2023-02-18T15:02:50;1.08;;;0.45;;
38567;SDS011;24338;48.280;10.970;2023-02-18T15:05:20;0.52;;;0.20;;
38567;SDS011;24338;48.280;10.970;2023-02-18T15:07:59;0.77;;;0.25;;
38567;SDS011;24338;48.280;10.970;2023-02-18T15:10:33;1.35;;;0.32;;
38567;SDS011;24338;48.280;10.970;2023-02-18T15:13:15;0.88;;;0.30;;
38567;SDS011;24338;48.280;10.970;2023-02-18T15:15:53;0.75;;;0.30;;
38567;SDS011;24338;48.280;10.970;2023-02-18T15:21:31;0.45;;;0.17;;
38567;SDS011;24338;48.280;10.970;2023-02-18T15:24:05;0.95;;;0.32;;
38567;SDS011;24338;48.280;10.970;2023-02-18T15:26:45;1.13;;;0.30;;
38567;SDS011;24338;48.280;10.970;2023-02-18T15:29:26;1.02;;;0.22;;
38567;SDS011;24338;48.280;10.970;2023-02-18T15:31:55;1.42;;;0.20;;
38567;SDS011;24338;48.280;10.970;2023-02-18T15:34:28;1.25;;;0.32;;
38567;SDS011;24338;48.280;10.970;2023-02-18T15:36:58;0.95;;;0.40;;
38567;SDS011;24338;48.280;10.970;2023-02-18T15:39:26;0.63;;;0.25;;
38567;SDS011;24338;48.280;10.970;2023-02-18T15:41:53;0.80;;;0.30;;
38567;SDS011;24338;48.280;10.970;2023-02-18T15:44:23;2.20;;;0.40;;
38567;SDS011;24338;48.280;10.970;2023-02-18T15:46:53;0.80;;;0.13;;
38567;SDS011;24338;48.280;10.970;2023-02-18T15:49:21;1.20;;;0.30;;
38567;SDS011;24338;48.280;10.970;2023-02-18T15:51:49;0.63;;;0.22;;
38567;SDS011;24338;48.280;10.970;2023-02-18T15:54:21;1.40;;;0.30;;
38567;SDS011;24338;48.280;10.970;2023-02-18T15:56:50;0.82;;;0.30;;
38567;SDS011;24338;48.280;10.970;2023-02-18T15:59:30;2.25;;;0.30;;
38567;SDS011;24338;48.280;10.970;2023-02-18T16:02:07;3.58;;;0.40;;
38567;SDS011;24338;48.280;10.970;2023-02-18T16:04:45;0.60;;;0.20;;
38567;SDS011;24338;48.280;10.970;2023-02-18T16:12:46;0.95;;;0.20;;
38567;SDS011;24338;48.280;10.970;2023-02-18T16:15:20;1.95;;;0.30;;
38567;SDS011;24338;48.280;10.970;2023-02-18T16:17:54;2.28;;;0.40;;
38567;SDS011;24338;48.280;10.970;2023-02-18T16:20:25;1.52;;;0.40;;
38567;SDS011;24338;48.280;10.970;2023-02-18T16:23:02;1.20;;;0.30;;
38567;SDS011;24338;48.280;10.970;2023-02-18T16:28:06;1.27;;;0.30;;
38567;SDS011;24338;48.280;10.970;2023-02-18T16:30:38;0.38;;;0.20;;
38567;SDS011;24338;48.280;10.970;2023-02-18T16:33:06;0.90;;;0.30;;
38567;SDS011;24338;48.280;10.970;2023-02-18T16:35:33;1.48;;;0.32;;
38567;SDS011;24338;48.280;10.970;2023-02-18T16:38:22;0.98;;;0.20;;
38567;SDS011;24338;48.280;10.970;2023-02-18T16:40:50;1.15;;;0.30;;
38567;SDS011;24338;48.280;10.970;2023-02-18T16:43:22;0.73;;;0.20;;
38567;SDS011;24338;48.280;10.970;2023-02-18T16:45:53;0.43;;;0.20;;
38567;SDS011;24338;48.280;10.970;2023-02-18T16:48:29;0.80;;;0.20;;
38567;SDS011;24338;48.280;10.970;2023-02-18T16:51:01;0.90;;;0.30;;
38567;SDS011;24338;48.280;10.970;2023-02-18T16:53:31;2.58;;;0.30;;
38567;SDS011;24338;48.280;10.970;2023-02-18T16:55:58;2.05;;;0.50;;
38567;SDS011;24338;48.280;10.970;2023-02-18T16:58:26;1.70;;;0.40;;
38567;SDS011;24338;48.280;10.970;2023-02-18T17:00:53;2.45;;;0.60;;
38567;SDS011;24338;48.280;10.970;2023-02-18T17:03:20;0.98;;;0.30;;
38567;SDS011;24338;48.280;10.970;2023-02-18T17:05:47;1.13;;;0.35;;
38567;SDS011;24338;48.280;10.970;2023-02-18T17:10:49;1.33;;;0.30;;
38567;SDS011;24338;48.280;10.970;2023-02-18T17:13:20;2.38;;;0.32;;
38567;SDS011;24338;48.280;10.970;2023-02-18T17:15:52;1.02;;;0.45;;
38567;SDS011;24338;48.280;10.970;2023-02-18T17:18:20;2.85;;;0.43;;
38567;SDS011;24338;48.280;10.970;2023-02-18T17:20:49;1.33;;;0.30;;
38567;SDS011;24338;48.280;10.970;2023-02-18T17:23:18;2.97;;;0.73;;
38567;SDS011;24338;48.280;10.970;2023-02-18T17:25:47;0.57;;;0.30;;
38567;SDS011;24338;48.280;10.970;2023-02-18T17:28:15;2.15;;;0.85;;
38567;SDS011;24338;48.280;10.970;2023-02-18T17:31:02;1.33;;;0.32;;
38567;SDS011;24338;48.280;10.970;2023-02-18T17:33:29;2.15;;;0.52;;
38567;SDS011;24338;48.280;10.970;2023-02-18T17:35:56;1.13;;;0.40;;
38567;SDS011;24338;48.280;10.970;2023-02-18T17:38:24;0.90;;;0.30;;
38567;SDS011;24338;48.280;10.970;2023-02-18T17:40:51;1.40;;;0.60;;
38567;SDS011;24338;48.280;10.970;2023-02-18T17:43:18;1.38;;;0.32;;
38567;SDS011;24338;48.280;10.970;2023-02-18T17:48:14;1.00;;;0.50;;
38567;SDS011;24338;48.280;10.970;2023-02-18T17:50:41;0.98;;;0.43;;
38567;SDS011;24338;48.280;10.970;2023-02-18T17:53:09;1.65;;;0.70;;
38567;SDS011;24338;48.280;10.970;2023-02-18T17:55:39;1.38;;;0.45;;
38567;SDS011;24338;48.280;10.970;2023-02-18T17:58:11;1.92;;;0.50;;